Time;durP1;ratioP1;P1;durP2;ratioP2;P2;SDS_P1;SDS_P2;PMS_P1;PMS_P2;Temp;Humidity;BMP_temperature;BMP_pressure;BME280_temperature;BME280_humidity;BME280_pressure;Samples;Min_cycle;Max_cycle;Signal;HPM_P1;HPM_P2
2022/05/23 00:01:29;;;;;;;1.60;1.50;;;23.20;50.30;;;;;;4977630;28;20202;-70
2022/05/23 00:03:56;;;;;;;2.05;1.70;;;23.20;50.30;;;;;;4975892;28;20202;-70
2022/05/23 00:06:23;;;;;;;1.70;1.60;;;23.20;50.40;;;;;;4975748;28;20206;-71
2022/05/23 00:08:51;;;;;;;1.70;1.60;;;23.10;50.30;;;;;;4976977;28;20214;-71
2022/05/23 00:11:19;;;;;;;1.67;1.55;;;23.10;50.30;;;;;;4975991;28;20293;-70
2022/05/23 00:13:46;;;;;;;1.98;1.77;;;23.10;50.30;;;;;;4975840;28;20208;-70
2022/05/23 00:16:18;;;;;;;1.80;1.70;;;23.10;50.40;;;;;;4975773;28;20202;-71
2022/05/23 00:18:45;;;;;;;1.75;1.65;;;23.10;50.50;;;;;;4977030;28;20305;-70
2022/05/23 00:21:12;;;;;;;1.90;1.80;;;23.10;50.50;;;;;;4976419;28;20200;-71
2022/05/23 00:23:39;;;;;;;1.95;1.83;;;23.10;50.50;;;;;;4975981;28;20237;-71
2022/05/23 00:26:06;;;;;;;2.80;1.80;;;23.00;50.40;;;;;;4976035;28;20198;-70
2022/05/23 00:28:33;;;;;;;1.85;1.70;;;23.00;50.40;;;;;;4976483;28;20218;-71
2022/05/23 00:31:00;;;;;;;1.73;1.63;;;23.00;50.60;;;;;;4975735;28;20218;-70
2022/05/23 00:36:13;;;;;;;1.70;1.60;;;23.00;50.70;;;;;;4975559;28;20209;-69
2022/05/23 00:38:40;;;;;;;1.90;1.80;;;23.00;50.70;;;;;;4975511;28;20229;-70
2022/05/23 00:44:00;;;;;;;1.85;1.75;;;23.00;50.70;;;;;;4975337;28;20253;-71
2022/05/23 00:46:27;;;;;;;1.85;1.65;;;22.90;50.60;;;;;;4975857;28;20186;-71
2022/05/23 00:48:58;;;;;;;1.90;1.80;;;22.90;50.60;;;;;;4975074;28;20237;-71
2022/05/23 00:51:26;;;;;;;1.67;1.58;;;22.90;50.60;;;;;;4975182;28;20727;-70
2022/05/23 00:53:55;;;;;;;1.90;1.80;;;22.90;50.70;;;;;;4975252;28;20204;-71
2022/05/23 00:56:25;;;;;;;1.73;1.63;;;22.90;50.60;;;;;;4974844;28;20221;-70
2022/05/23 00:58:54;;;;;;;1.75;1.65;;;22.90;50.70;;;;;;4974760;28;20228;-71
2022/05/23 01:01:23;;;;;;;1.75;1.65;;;22.90;50.70;;;;;;4974796;28;20190;-71
2022/05/23 01:03:50;;;;;;;1.88;1.77;;;22.80;50.60;;;;;;4975021;28;20253;-71
2022/05/23 01:06:19;;;;;;;1.90;1.80;;;22.90;50.80;;;;;;4974764;28;20206;-71
2022/05/23 01:08:49;;;;;;;1.95;1.80;;;22.80;50.70;;;;;;4975584;28;20218;-70
2022/05/23 01:11:16;;;;;;;1.92;1.60;;;22.80;50.80;;;;;;4974882;28;20221;-70
2022/05/23 01:13:43;;;;;;;1.80;1.70;;;22.80;50.70;;;;;;4975448;28;20288;-70
2022/05/23 01:16:11;;;;;;;1.80;1.70;;;22.80;50.80;;;;;;4974496;28;20206;-70
2022/05/23 01:18:43;;;;;;;1.60;1.50;;;22.80;50.80;;;;;;4974480;28;20331;-70
2022/05/23 01:21:13;;;;;;;1.80;1.70;;;22.70;50.80;;;;;;4974229;28;20222;-71
2022/05/23 01:23:45;;;;;;;1.80;1.70;;;22.70;50.80;;;;;;4974480;28;20198;-71
2022/05/23 01:26:27;;;;;;;1.90;1.80;;;22.70;50.90;;;;;;4974473;28;20194;-70
2022/05/23 01:28:57;;;;;;;1.75;1.65;;;22.70;50.80;;;;;;4974408;28;20310;-70
2022/05/23 01:31:50;;;;;;;1.75;1.65;;;22.70;50.80;;;;;;4975295;28;20201;-70
2022/05/23 01:34:28;;;;;;;2.20;1.70;;;22.70;50.90;;;;;;4974246;28;20626;-70
2022/05/23 01:37:00;;;;;;;1.80;1.70;;;22.70;50.90;;;;;;4974364;28;20198;-70
2022/05/23 01:39:29;;;;;;;1.90;1.80;;;22.70;50.90;;;;;;4973863;28;20249;-70
2022/05/23 01:42:00;;;;;;;1.80;1.70;;;22.60;51.00;;;;;;4973885;28;20261;-70
2022/05/23 01:44:28;;;;;;;1.83;1.73;;;22.70;51.00;;;;;;4973864;28;20261;-70
2022/05/23 01:47:10;;;;;;;1.63;1.52;;;22.60;50.90;;;;;;4974126;28;20194;-70
2022/05/23 01:50:04;;;;;;;1.75;1.65;;;22.60;51.00;;;;;;4973862;28;20718;-70
2022/05/23 01:52:37;;;;;;;1.92;1.80;;;22.60;51.00;;;;;;4973848;28;20642;-71
2022/05/23 01:55:12;;;;;;;2.13;1.63;;;22.60;50.90;;;;;;4973838;28;20480;-70
2022/05/23 01:57:46;;;;;;;1.70;1.60;;;22.60;50.90;;;;;;4973963;28;20308;-70
2022/05/23 02:03:00;;;;;;;2.10;1.90;;;22.60;51.00;;;;;;4974018;28;20186;-70
2022/05/23 02:05:30;;;;;;;1.80;1.70;;;22.60;51.10;;;;;;4973526;28;20198;-70
2022/05/23 02:07:58;;;;;;;1.75;1.65;;;22.60;51.00;;;;;;4973749;28;20594;-70
2022/05/23 02:10:25;;;;;;;2.00;1.90;;;22.60;51.10;;;;;;4973608;28;20218;-71
2022/05/23 02:12:56;;;;;;;1.70;1.60;;;22.60;51.10;;;;;;4973887;28;20226;-71
2022/05/23 02:15:28;;;;;;;1.77;1.67;;;22.60;51.00;;;;;;4974971;28;20198;-71
2022/05/23 02:18:26;;;;;;;1.90;1.80;;;22.60;51.10;;;;;;4973339;28;20233;-70
2022/05/23 02:20:55;;;;;;;1.70;1.60;;;22.50;51.10;;;;;;4973327;28;20194;-70
2022/05/23 02:23:22;;;;;;;2.03;1.65;;;22.50;51.00;;;;;;4973257;28;20618;-71
2022/05/23 02:25:50;;;;;;;1.90;1.80;;;22.50;51.20;;;;;;4973443;28;20245;-70
2022/05/23 02:28:42;;;;;;;1.70;1.60;;;22.50;51.10;;;;;;4971387;28;20214;-70
2022/05/23 02:31:16;;;;;;;1.70;1.60;;;22.50;51.20;;;;;;4973480;28;20217;-71
2022/05/23 02:33:53;;;;;;;1.70;1.60;;;22.50;51.30;;;;;;4973370;28;20201;-70
2022/05/23 02:36:37;;;;;;;1.88;1.77;;;22.50;51.30;;;;;;4973311;28;20284;-70
2022/05/23 02:39:05;;;;;;;3.47;1.90;;;22.40;51.20;;;;;;4973449;28;20249;-71
2022/05/23 02:41:33;;;;;;;1.75;1.63;;;22.40;51.20;;;;;;4973844;28;20202;-71
2022/05/23 02:44:02;;;;;;;1.88;1.65;;;22.40;51.20;;;;;;4973480;28;20678;-70
2022/05/23 02:46:29;;;;;;;2.00;1.90;;;22.40;51.30;;;;;;4973530;28;20312;-70
2022/05/23 02:49:06;;;;;;;1.88;1.70;;;22.40;51.30;;;;;;4974512;28;20221;-71
2022/05/23 02:51:35;;;;;;;1.80;1.70;;;22.40;51.30;;;;;;4973846;28;20305;-71
2022/05/23 02:54:06;;;;;;;1.70;1.60;;;22.40;51.30;;;;;;4973337;28;20190;-71
2022/05/23 02:56:35;;;;;;;1.80;1.70;;;22.40;51.30;;;;;;4973249;28;20208;-71
2022/05/23 02:59:05;;;;;;;1.90;1.80;;;22.40;51.50;;;;;;4973204;28;20257;-71
2022/05/23 03:01:32;;;;;;;2.17;1.70;;;22.40;51.40;;;;;;4973318;28;20658;-71
2022/05/23 03:03:59;;;;;;;2.08;1.85;;;22.40;51.30;;;;;;4973502;28;20205;-71
2022/05/23 03:06:27;;;;;;;2.65;1.80;;;22.30;51.30;;;;;;4973122;28;20582;-70
2022/05/23 03:08:54;;;;;;;1.90;1.80;;;22.30;51.30;;;;;;4973166;28;20249;-70
2022/05/23 03:11:23;;;;;;;2.13;1.80;;;22.30;51.30;;;;;;4973167;28;20653;-71
2022/05/23 03:13:50;;;;;;;2.08;1.90;;;22.30;51.30;;;;;;4973113;28;20217;-71
2022/05/23 03:16:19;;;;;;;2.67;1.80;;;22.30;51.40;;;;;;4972999;28;20257;-71
2022/05/23 03:18:46;;;;;;;1.65;1.55;;;22.30;51.30;;;;;;4973163;28;20313;-71
2022/05/23 03:26:58;;;;;;;1.80;1.70;;;22.30;51.90;;;;;;4973613;28;20203;-71
2022/05/23 03:27:01;;;;;;;2.55;1.70;;;22.30;51.60;;;;;;4953088;28;20205;-71
2022/05/23 03:29:36;;;;;;;2.53;1.67;;;22.40;51.50;;;;;;4976570;28;20312;-71
2022/05/23 03:32:06;;;;;;;1.80;1.70;;;22.40;51.50;;;;;;4976696;28;20230;-71
2022/05/23 03:34:33;;;;;;;2.22;1.90;;;22.40;51.30;;;;;;4976756;28;20221;-70
2022/05/23 03:37:01;;;;;;;1.70;1.60;;;22.40;51.20;;;;;;4976801;28;20198;-70
2022/05/23 03:39:29;;;;;;;2.15;1.58;;;22.50;51.30;;;;;;4976953;28;20599;-71
2022/05/23 03:41:56;;;;;;;2.40;1.80;;;22.50;51.20;;;;;;4976407;28;20237;-70
2022/05/23 03:44:23;;;;;;;2.08;1.70;;;22.50;51.10;;;;;;4976432;28;20226;-70
2022/05/23 03:46:51;;;;;;;2.03;1.80;;;22.50;51.10;;;;;;4976498;28;20220;-70
2022/05/23 03:49:21;;;;;;;1.60;1.50;;;22.50;51.20;;;;;;4976354;28;20222;-71
2022/05/23 03:51:48;;;;;;;1.85;1.63;;;22.50;51.10;;;;;;4976564;28;20218;-70
2022/05/23 03:54:15;;;;;;;1.60;1.50;;;22.50;51.20;;;;;;4976632;28;20581;-71
2022/05/23 03:56:45;;;;;;;1.60;1.50;;;22.50;51.20;;;;;;4976633;28;20287;-71
2022/05/23 03:59:14;;;;;;;1.77;1.67;;;22.50;51.10;;;;;;4976671;28;20281;-70
2022/05/23 04:01:52;;;;;;;1.65;1.55;;;22.50;51.20;;;;;;4977348;28;20196;-70
2022/05/23 04:04:34;;;;;;;2.13;1.85;;;22.50;51.20;;;;;;4978641;28;20216;-71
2022/05/23 04:07:20;;;;;;;1.77;1.67;;;22.50;51.90;;;;;;4978851;28;20245;-71
2022/05/23 04:09:58;;;;;;;2.15;1.67;;;22.50;51.20;;;;;;4976930;28;20228;-71
2022/05/23 04:12:28;;;;;;;1.70;1.60;;;22.50;51.90;;;;;;4976307;28;20194;-71
2022/05/23 04:14:55;;;;;;;2.00;1.90;;;22.50;51.30;;;;;;4977402;28;20690;-71
2022/05/23 04:17:27;;;;;;;2.75;1.80;;;22.50;51.40;;;;;;4976458;28;20261;-71
2022/05/23 04:19:55;;;;;;;2.17;1.67;;;22.50;51.70;;;;;;4976308;28;20206;-70
2022/05/23 04:22:25;;;;;;;2.15;1.75;;;22.50;51.80;;;;;;4976803;28;20221;-70
2022/05/23 04:25:06;;;;;;;2.05;1.95;;;22.50;52.40;;;;;;4975950;28;20279;-70
2022/05/23 04:27:34;;;;;;;1.98;1.88;;;22.50;51.80;;;;;;4976635;28;20226;-70
2022/05/23 04:30:01;;;;;;;1.88;1.77;;;22.50;51.60;;;;;;4975954;28;20577;-70
2022/05/23 04:35:22;;;;;;;3.33;1.70;;;22.50;51.60;;;;;;4975076;28;20190;-70
2022/05/23 04:37:51;;;;;;;1.65;1.50;;;22.50;51.80;;;;;;4975504;28;20222;-70
2022/05/23 04:40:22;;;;;;;1.70;1.60;;;22.50;51.80;;;;;;4976202;28;20207;-70
2022/05/23 04:42:49;;;;;;;1.77;1.67;;;22.50;51.80;;;;;;4975714;28;20280;-70
2022/05/23 04:45:17;;;;;;;1.98;1.88;;;22.50;51.80;;;;;;4975311;28;20195;-70
2022/05/23 04:50:38;;;;;;;2.10;1.75;;;22.50;51.80;;;;;;4974930;28;20809;-70
2022/05/23 04:53:08;;;;;;;1.80;1.70;;;22.50;51.90;;;;;;4975060;28;20718;-70
2022/05/23 04:55:49;;;;;;;1.73;1.48;;;22.50;52.20;;;;;;4975374;28;20241;-70
2022/05/23 04:58:16;;;;;;;2.60;1.80;;;22.50;52.20;;;;;;4974787;28;20222;-70
2022/05/23 05:00:44;;;;;;;1.98;1.80;;;22.50;52.20;;;;;;4975940;28;20194;-70
2022/05/23 05:03:12;;;;;;;2.60;1.90;;;22.50;52.20;;;;;;4974721;28;20202;-70
2022/05/23 05:05:45;;;;;;;2.00;1.83;;;22.50;52.30;;;;;;4976353;28;20170;-71
2022/05/23 05:08:12;;;;;;;2.28;1.70;;;22.50;52.40;;;;;;4975284;28;20214;-70
2022/05/23 05:10:43;;;;;;;2.17;1.95;;;22.50;52.50;;;;;;4975454;28;20628;-70
2022/05/23 05:13:10;;;;;;;2.30;2.10;;;22.50;52.50;;;;;;4977533;28;20205;-71
2022/05/23 05:15:37;;;;;;;1.80;1.70;;;22.50;52.60;;;;;;4976746;28;20194;-71
2022/05/23 05:18:12;;;;;;;2.22;1.70;;;22.50;52.50;;;;;;4977773;28;20232;-70
2022/05/23 05:20:48;;;;;;;2.05;1.90;;;22.50;52.60;;;;;;4976664;28;20167;-69
2022/05/23 05:23:35;;;;;;;2.00;1.90;;;22.50;52.70;;;;;;4965050;28;20667;-70
2022/05/23 05:26:20;;;;;;;1.98;1.88;;;22.50;52.60;;;;;;4974405;28;20205;-70
2022/05/23 05:28:47;;;;;;;2.35;2.00;;;22.50;52.80;;;;;;4974462;28;20214;-70
2022/05/23 05:31:16;;;;;;;3.05;1.80;;;22.50;52.90;;;;;;4974258;28;20590;-71
2022/05/23 05:33:45;;;;;;;2.47;2.33;;;22.50;52.80;;;;;;4974533;28;20202;-70
2022/05/23 05:36:16;;;;;;;2.05;1.90;;;22.50;52.80;;;;;;4975616;28;20567;-71
2022/05/23 05:38:48;;;;;;;2.03;1.83;;;22.50;52.90;;;;;;4974606;28;20225;-70
2022/05/23 05:41:19;;;;;;;1.95;1.85;;;22.50;52.80;;;;;;4974365;28;20194;-70
2022/05/23 05:43:49;;;;;;;2.83;1.80;;;22.50;52.70;;;;;;4974225;28;20218;-70
2022/05/23 05:46:20;;;;;;;2.00;1.80;;;22.50;52.70;;;;;;4974549;28;20640;-70
2022/05/23 05:49:08;;;;;;;2.08;1.70;;;22.50;52.80;;;;;;4974434;28;20268;-71
2022/05/23 05:51:37;;;;;;;1.90;1.80;;;22.50;52.80;;;;;;4974265;28;20222;-70
2022/05/23 05:54:14;;;;;;;2.00;1.90;;;22.60;52.90;;;;;;4975180;28;20218;-70
2022/05/23 05:56:50;;;;;;;2.15;1.98;;;22.60;53.00;;;;;;4975258;28;20634;-70
2022/05/23 05:59:17;;;;;;;2.50;1.80;;;22.60;53.00;;;;;;4974350;28;20217;-70
2022/05/23 06:01:47;;;;;;;2.20;2.00;;;22.60;53.00;;;;;;4974269;28;20214;-70
2022/05/23 06:04:16;;;;;;;2.20;1.88;;;22.60;53.10;;;;;;4974041;28;20590;-71
2022/05/23 06:12:38;;;;;;;2.20;2.00;;;22.60;53.00;;;;;;4973797;28;20214;-70
2022/05/23 06:15:24;;;;;;;2.75;1.90;;;22.70;52.90;;;;;;4975128;28;20189;-70
2022/05/23 06:17:52;;;;;;;2.97;2.20;;;22.90;53.50;;;;;;4973329;28;20230;-70
2022/05/23 06:20:19;;;;;;;2.05;1.85;;;23.10;52.60;;;;;;4973439;28;20682;-70
2022/05/23 06:22:51;;;;;;;2.60;2.13;;;23.30;52.10;;;;;;4973431;28;20194;-70
2022/05/23 06:25:18;;;;;;;2.30;2.10;;;23.50;51.60;;;;;;4973377;28;20198;-70
2022/05/23 06:27:46;;;;;;;2.58;1.90;;;23.70;51.20;;;;;;4973307;28;20695;-70
2022/05/23 06:30:16;;;;;;;2.10;1.98;;;23.80;50.90;;;;;;4973771;28;20209;-71
2022/05/23 06:33:02;;;;;;;2.40;2.20;;;24.00;50.70;;;;;;4974993;28;20221;-70
2022/05/23 06:35:44;;;;;;;2.08;1.98;;;24.00;50.50;;;;;;4974206;28;20206;-70
2022/05/23 06:38:13;;;;;;;3.50;2.00;;;24.10;50.50;;;;;;4973274;28;20214;-71
2022/05/23 06:40:48;;;;;;;2.38;1.92;;;24.10;50.30;;;;;;4974906;28;20186;-71
2022/05/23 06:43:21;;;;;;;2.08;1.90;;;24.20;50.20;;;;;;4974447;28;20178;-70
2022/05/23 06:46:15;;;;;;;2.10;1.90;;;24.30;50.00;;;;;;4974350;28;20198;-70
2022/05/23 06:49:01;;;;;;;2.15;1.80;;;24.40;49.70;;;;;;4973334;28;20633;-70
2022/05/23 06:51:51;;;;;;;2.60;2.10;;;24.40;49.90;;;;;;4973365;28;20367;-70
2022/05/23 06:54:22;;;;;;;2.20;2.00;;;24.40;49.30;;;;;;4973283;28;20206;-70
2022/05/23 06:57:02;;;;;;;2.22;2.03;;;24.50;49.40;;;;;;4973756;28;20693;-70
2022/05/23 06:59:29;;;;;;;1.80;1.70;;;24.50;49.30;;;;;;4976759;28;20222;-71
2022/05/23 07:01:58;;;;;;;2.35;2.10;;;24.50;49.20;;;;;;4977283;28;20194;-70
2022/05/23 07:14:01;;;;;;;2.92;2.28;;;24.90;48.50;;;;;;4977275;28;20207;-70
2022/05/23 07:16:31;;;;;;;2.60;1.90;;;24.90;48.40;;;;;;4977078;28;20196;-70
2022/05/23 07:18:58;;;;;;;4.00;2.03;;;25.00;48.30;;;;;;4976723;28;20214;-70
2022/05/23 07:21:35;;;;;;;2.25;1.90;;;25.10;48.80;;;;;;4977217;28;20222;-70
2022/05/23 07:24:10;;;;;;;2.85;2.10;;;25.00;48.10;;;;;;4977007;28;20194;-70
2022/05/23 07:26:45;;;;;;;1.85;1.75;;;25.00;48.10;;;;;;4976930;28;20221;-71
2022/05/23 07:29:15;;;;;;;2.33;2.13;;;25.00;48.30;;;;;;4976887;28;20218;-70
2022/05/23 07:31:44;;;;;;;2.00;1.90;;;24.90;48.20;;;;;;4976587;28;20222;-70
2022/05/23 07:34:12;;;;;;;2.25;1.80;;;24.90;48.10;;;;;;4976981;28;20226;-70
2022/05/23 07:36:39;;;;;;;2.40;1.90;;;24.90;48.30;;;;;;4976976;28;20221;-71
2022/05/23 07:39:09;;;;;;;2.17;1.98;;;24.90;48.50;;;;;;4977193;28;20242;-70
2022/05/23 07:41:43;;;;;;;2.53;1.80;;;24.90;48.40;;;;;;4977167;28;20190;-70
2022/05/23 07:44:12;;;;;;;3.78;2.00;;;24.90;48.50;;;;;;4977664;28;20198;-71
2022/05/23 07:46:43;;;;;;;2.20;1.73;;;24.90;48.30;;;;;;4977675;28;20201;-71
2022/05/23 07:49:13;;;;;;;2.00;1.90;;;25.00;48.30;;;;;;4977367;28;20253;-71
2022/05/23 07:51:48;;;;;;;1.75;1.65;;;25.20;48.10;;;;;;4976957;28;20213;-71
2022/05/23 08:02:48;;;;;;;2.92;1.90;;;25.30;47.70;;;;;;4977512;28;20182;-70
2022/05/23 08:05:23;;;;;;;2.65;2.08;;;25.20;47.70;;;;;;4975954;28;20194;-70
2022/05/23 08:07:53;;;;;;;2.75;1.90;;;25.10;47.80;;;;;;4976023;28;20242;-70
2022/05/23 08:10:21;;;;;;;2.13;1.70;;;25.10;47.90;;;;;;4975044;28;20202;-71
2022/05/23 08:12:50;;;;;;;2.28;2.08;;;25.10;48.00;;;;;;4975636;28;20237;-70
2022/05/23 08:15:20;;;;;;;2.17;1.98;;;25.10;48.00;;;;;;4975684;28;20198;-71
2022/05/23 08:17:50;;;;;;;1.90;1.80;;;25.20;47.90;;;;;;4975527;28;20313;-70
2022/05/23 08:20:28;;;;;;;2.22;2.08;;;25.30;47.70;;;;;;4976593;28;20208;-71
2022/05/23 08:22:57;;;;;;;1.88;1.70;;;25.40;47.50;;;;;;4975685;28;20206;-70
2022/05/23 08:25:47;;;;;;;2.13;1.92;;;25.40;48.10;;;;;;4976378;28;20202;-70
2022/05/23 08:28:14;;;;;;;1.80;1.70;;;25.40;47.40;;;;;;4975467;28;20218;-70
2022/05/23 08:30:43;;;;;;;1.83;1.70;;;25.40;47.40;;;;;;4976191;28;20270;-71
2022/05/23 08:33:30;;;;;;;2.38;2.17;;;25.40;47.40;;;;;;4977113;28;20230;-71
2022/05/23 08:36:18;;;;;;;2.97;1.98;;;25.30;47.50;;;;;;4984189;28;20202;-71
2022/05/23 08:38:45;;;;;;;2.05;1.95;;;25.30;47.70;;;;;;4975672;28;20226;-70
2022/05/23 08:41:29;;;;;;;1.90;1.80;;;25.30;47.70;;;;;;4975498;28;20198;-70
2022/05/23 08:44:08;;;;;;;2.28;1.90;;;25.20;47.80;;;;;;4975927;28;20198;-70
2022/05/23 08:46:51;;;;;;;2.33;2.05;;;25.20;47.90;;;;;;4975598;28;20518;-70
2022/05/23 08:49:27;;;;;;;1.85;1.75;;;25.20;48.00;;;;;;4975086;28;20225;-70
2022/05/23 08:52:03;;;;;;;2.20;2.00;;;25.20;48.00;;;;;;4975028;28;20765;-70
2022/05/23 08:54:36;;;;;;;2.28;2.00;;;25.20;48.10;;;;;;4975079;28;20655;-71
2022/05/23 08:57:06;;;;;;;2.15;1.95;;;25.20;48.10;;;;;;4976402;28;20300;-70
2022/05/23 08:59:39;;;;;;;1.90;1.80;;;25.10;48.00;;;;;;4975139;28;20218;-70
2022/05/23 09:02:11;;;;;;;2.17;1.92;;;25.10;48.10;;;;;;4974950;28;20190;-71
2022/05/23 09:04:51;;;;;;;2.08;1.90;;;25.10;48.20;;;;;;4975000;28;20293;-71
2022/05/23 09:07:22;;;;;;;1.90;1.80;;;25.10;48.20;;;;;;4975200;28;20719;-71
2022/05/23 09:09:50;;;;;;;2.17;2.00;;;25.10;48.20;;;;;;4974741;28;20261;-70
2022/05/23 09:12:17;;;;;;;1.88;1.77;;;25.10;48.20;;;;;;4974450;28;20273;-70
2022/05/23 09:14:46;;;;;;;2.03;1.73;;;25.20;48.20;;;;;;4974436;28;20273;-70
2022/05/23 09:17:19;;;;;;;2.05;1.73;;;25.10;48.20;;;;;;4974438;28;20671;-70
2022/05/23 09:19:52;;;;;;;1.60;1.50;;;25.10;48.30;;;;;;4974254;28;20214;-70
2022/05/23 09:22:20;;;;;;;2.20;1.80;;;25.10;48.30;;;;;;4974939;28;20174;-70
2022/05/23 09:24:55;;;;;;;2.03;1.83;;;25.10;48.40;;;;;;4974498;28;20253;-71
2022/05/23 09:27:25;;;;;;;1.85;1.75;;;25.10;48.40;;;;;;4975148;28;20208;-71
2022/05/23 09:29:53;;;;;;;1.80;1.70;;;25.10;48.40;;;;;;4974577;28;20214;-70
2022/05/23 09:32:24;;;;;;;1.88;1.70;;;25.10;48.40;;;;;;4974411;28;20304;-71
2022/05/23 09:34:53;;;;;;;1.63;1.52;;;25.10;48.50;;;;;;4974575;28;20205;-70
2022/05/23 09:37:21;;;;;;;1.85;1.75;;;25.10;48.60;;;;;;4975200;28;20562;-70
2022/05/23 09:39:53;;;;;;;1.80;1.70;;;25.10;48.60;;;;;;4973944;28;20202;-70
2022/05/23 09:48:10;;;;;;;1.70;1.60;;;25.20;48.70;;;;;;4975118;28;20210;-70
2022/05/23 09:50:39;;;;;;;1.80;1.70;;;25.20;48.50;;;;;;4973664;28;20643;-70
2022/05/23 09:53:15;;;;;;;1.67;1.58;;;25.20;48.50;;;;;;4973585;28;20221;-70
2022/05/23 09:55:43;;;;;;;1.75;1.65;;;25.20;48.50;;;;;;4974426;28;20186;-70
2022/05/23 09:58:11;;;;;;;1.83;1.70;;;25.30;48.40;;;;;;4974854;28;20220;-69
2022/05/23 10:00:40;;;;;;;1.83;1.73;;;25.30;48.40;;;;;;4973680;28;20197;-70
2022/05/23 10:03:14;;;;;;;2.28;1.70;;;25.30;48.30;;;;;;4973933;28;20244;-70
2022/05/23 10:05:42;;;;;;;1.88;1.70;;;25.30;48.80;;;;;;4973536;28;20205;-70
2022/05/23 10:08:11;;;;;;;1.90;1.80;;;25.40;48.70;;;;;;4973522;28;20241;-71
2022/05/23 10:10:39;;;;;;;1.88;1.60;;;25.40;48.10;;;;;;4974625;28;20667;-70
2022/05/23 10:13:20;;;;;;;2.40;1.80;;;25.40;48.00;;;;;;4973883;28;20269;-71
2022/05/23 10:15:47;;;;;;;1.77;1.67;;;25.40;47.90;;;;;;4975222;28;20183;-72
2022/05/23 10:18:20;;;;;;;1.75;1.65;;;25.50;48.00;;;;;;4974143;28;20642;-71
2022/05/23 10:20:47;;;;;;;1.92;1.83;;;25.50;48.00;;;;;;4975233;28;20192;-71
2022/05/23 10:23:15;;;;;;;1.70;1.60;;;25.50;48.00;;;;;;4973350;28;20244;-71
2022/05/23 10:25:53;;;;;;;1.98;1.80;;;25.40;47.90;;;;;;4973456;28;20213;-71
2022/05/23 10:28:23;;;;;;;1.95;1.77;;;25.40;47.90;;;;;;4974810;28;20289;-70
2022/05/23 10:30:56;;;;;;;1.70;1.60;;;25.50;48.00;;;;;;4973132;28;20198;-71
2022/05/23 10:33:27;;;;;;;1.90;1.80;;;25.40;48.00;;;;;;4972809;28;20220;-71
2022/05/23 10:36:00;;;;;;;2.45;1.90;;;25.40;47.90;;;;;;4973300;28;20226;-71
2022/05/23 10:44:05;;;;;;;1.70;1.60;;;25.40;48.10;;;;;;4973077;28;20186;-71
2022/05/23 10:46:34;;;;;;;1.75;1.65;;;25.40;48.10;;;;;;4973015;28;20575;-71
2022/05/23 10:49:08;;;;;;;1.60;1.50;;;25.40;48.10;;;;;;4973105;28;20312;-71
2022/05/23 10:51:38;;;;;;;1.70;1.60;;;25.40;48.10;;;;;;4973644;28;20195;-71
2022/05/23 10:54:15;;;;;;;1.80;1.70;;;25.40;48.10;;;;;;4974337;28;20696;-71
2022/05/23 10:57:02;;;;;;;1.63;1.52;;;25.40;48.20;;;;;;4974461;28;20269;-71
2022/05/23 10:59:35;;;;;;;1.70;1.60;;;25.30;48.10;;;;;;4973106;28;20682;-71
2022/05/23 11:02:10;;;;;;;1.70;1.60;;;25.30;48.20;;;;;;4974555;28;20179;-71
2022/05/23 11:04:46;;;;;;;1.60;1.50;;;25.30;48.20;;;;;;4984112;28;20185;-71
2022/05/23 11:07:37;;;;;;;1.80;1.70;;;25.30;48.40;;;;;;4984792;28;20233;-71
2022/05/23 11:10:10;;;;;;;1.50;1.50;;;25.20;48.30;;;;;;4970358;28;20206;-71
2022/05/23 11:12:43;;;;;;;1.65;1.50;;;25.20;48.50;;;;;;4974736;28;20304;-71
2022/05/23 11:15:29;;;;;;;1.90;1.80;;;25.20;48.50;;;;;;4973487;28;20222;-71
2022/05/23 11:18:00;;;;;;;1.80;1.70;;;25.20;48.60;;;;;;4973537;28;20855;-71
2022/05/23 11:20:30;;;;;;;1.73;1.63;;;25.20;48.70;;;;;;4973847;28;20200;-71
2022/05/23 11:23:00;;;;;;;1.95;1.77;;;25.10;48.70;;;;;;4974116;28;20297;-71
2022/05/23 11:25:29;;;;;;;1.92;1.70;;;25.10;48.70;;;;;;4973783;28;20206;-71
2022/05/23 11:33:46;;;;;;;1.70;1.60;;;25.10;48.90;;;;;;4972815;28;20233;-70
2022/05/23 11:36:24;;;;;;;1.75;1.65;;;25.10;49.00;;;;;;4972983;28;20256;-71
2022/05/23 11:38:52;;;;;;;1.73;1.63;;;25.10;49.10;;;;;;4974202;28;20214;-71
2022/05/23 11:41:32;;;;;;;1.63;1.52;;;25.10;49.10;;;;;;4973846;28;20543;-71
2022/05/23 11:43:59;;;;;;;1.80;1.70;;;25.00;49.10;;;;;;4972726;28;20202;-71
2022/05/23 11:46:27;;;;;;;1.88;1.77;;;25.00;49.20;;;;;;4976633;28;20198;-71
2022/05/23 11:49:02;;;;;;;2.30;1.77;;;25.00;49.20;;;;;;4976045;28;20222;-71
2022/05/23 11:51:41;;;;;;;2.33;1.80;;;24.90;49.30;;;;;;4976306;28;20194;-71
2022/05/23 11:54:10;;;;;;;1.63;1.50;;;25.00;49.40;;;;;;4976272;28;20225;-71
2022/05/23 11:57:11;;;;;;;1.90;1.63;;;24.90;49.40;;;;;;4976581;28;20202;-71
2022/05/23 12:00:00;;;;;;;1.70;1.60;;;24.90;49.60;;;;;;4976696;28;20214;-71
2022/05/23 12:02:28;;;;;;;1.80;1.70;;;24.90;49.70;;;;;;4975877;28;20197;-70
2022/05/23 12:05:31;;;;;;;2.72;1.90;;;24.80;49.60;;;;;;4975843;28;20198;-71
2022/05/23 12:08:02;;;;;;;1.67;1.58;;;24.80;49.60;;;;;;4936496;29;20227;-71
2022/05/23 12:10:55;;;;;;;2.67;1.60;;;24.80;50.10;;;;;;4965990;28;20206;-71
2022/05/23 12:13:38;;;;;;;2.15;1.70;;;24.70;50.10;;;;;;4975409;28;20225;-71
2022/05/23 12:16:22;;;;;;;2.15;1.60;;;24.70;50.20;;;;;;4975820;28;20208;-71
2022/05/23 12:18:50;;;;;;;1.88;1.55;;;24.70;50.50;;;;;;4977230;28;20761;-71
2022/05/23 12:21:42;;;;;;;1.90;1.80;;;24.60;50.50;;;;;;4976885;28;20221;-71
2022/05/23 12:24:25;;;;;;;2.33;1.67;;;24.60;50.60;;;;;;4975480;28;20620;-71
2022/05/23 12:26:55;;;;;;;2.60;1.60;;;24.60;50.70;;;;;;4975552;28;20202;-71
2022/05/23 12:29:30;;;;;;;2.13;1.92;;;24.50;50.70;;;;;;4975427;28;20333;-71
2022/05/23 12:32:10;;;;;;;2.45;1.92;;;24.50;50.90;;;;;;4975231;28;20216;-70
2022/05/23 12:34:41;;;;;;;1.80;1.70;;;24.50;50.90;;;;;;4975277;28;20214;-70
2022/05/23 12:37:14;;;;;;;1.80;1.70;;;24.40;51.00;;;;;;4977080;28;20221;-70
2022/05/23 12:39:49;;;;;;;1.75;1.65;;;24.40;51.00;;;;;;4975667;28;20690;-70
2022/05/23 12:42:26;;;;;;;1.85;1.75;;;24.50;51.10;;;;;;4975325;28;20284;-71
2022/05/23 12:45:28;;;;;;;4.03;1.80;;;24.50;51.20;;;;;;4975775;28;20269;-71
2022/05/23 12:48:13;;;;;;;3.70;1.83;;;24.50;51.60;;;;;;4976401;28;20225;-71
2022/05/23 12:50:53;;;;;;;4.05;1.88;;;24.50;51.60;;;;;;4974986;28;20214;-71
2022/05/23 12:53:45;;;;;;;3.38;1.88;;;24.50;52.30;;;;;;4976509;28;20289;-71
2022/05/23 12:56:23;;;;;;;3.33;1.90;;;24.60;52.40;;;;;;4970419;28;20206;-71
2022/05/23 12:59:08;;;;;;;2.45;1.90;;;24.60;51.80;;;;;;4976275;28;20241;-71
2022/05/23 13:01:36;;;;;;;1.80;1.70;;;24.70;51.90;;;;;;4976430;28;20715;-71
2022/05/23 13:04:08;;;;;;;2.90;1.90;;;24.70;51.70;;;;;;4976022;28;20194;-69
2022/05/23 13:06:38;;;;;;;1.85;1.73;;;24.70;51.70;;;;;;4974541;28;20199;-71
2022/05/23 13:09:06;;;;;;;1.70;1.60;;;24.70;51.30;;;;;;4974595;28;20222;-71
2022/05/23 13:11:37;;;;;;;2.25;1.50;;;24.80;51.40;;;;;;4975985;28;20241;-70
2022/05/23 13:14:05;;;;;;;3.45;1.70;;;24.80;51.10;;;;;;4974340;28;20218;-71
2022/05/23 13:16:34;;;;;;;6.00;1.77;;;24.90;50.90;;;;;;4974495;28;20627;-71
2022/05/23 13:24:53;;;;;;;2.38;1.77;;;25.00;50.60;;;;;;4974373;28;20232;-71
2022/05/23 13:27:26;;;;;;;2.30;1.70;;;25.10;50.70;;;;;;5077010;23;20240;-68
2022/05/23 13:29:55;;;;;;;2.60;1.52;;;25.10;50.50;;;;;;4975013;28;20204;-68
2022/05/23 13:32:23;;;;;;;1.77;1.65;;;25.10;50.20;;;;;;4977701;28;20281;-69
2022/05/23 13:34:51;;;;;;;3.05;1.80;;;25.20;49.90;;;;;;4977475;28;20725;-68
2022/05/23 13:37:26;;;;;;;1.42;1.33;;;25.20;50.00;;;;;;4964881;28;20782;-68
2022/05/23 13:39:53;;;;;;;1.88;1.77;;;25.20;49.90;;;;;;4965558;28;20301;-67
2022/05/23 13:42:21;;;;;;;2.75;1.80;;;25.20;49.90;;;;;;4963787;29;20203;-68
2022/05/23 13:44:50;;;;;;;2.30;1.90;;;25.20;49.90;;;;;;4960551;28;20240;-69
2022/05/23 13:47:19;;;;;;;1.90;1.70;;;25.20;49.90;;;;;;4956767;28;20218;-69
2022/05/23 13:49:48;;;;;;;1.90;1.60;;;25.10;49.90;;;;;;4956807;28;20214;-68
2022/05/23 13:52:16;;;;;;;1.60;1.50;;;25.10;49.80;;;;;;4955343;28;20199;-68
2022/05/23 13:54:47;;;;;;;2.92;2.05;;;25.20;49.90;;;;;;4955110;29;20214;-69
2022/05/23 13:57:16;;;;;;;2.58;1.83;;;25.10;49.80;;;;;;4955099;28;20229;-69
2022/05/23 13:59:45;;;;;;;2.10;1.80;;;25.10;49.80;;;;;;4955099;28;20206;-69
2022/05/23 14:02:17;;;;;;;2.40;1.60;;;25.10;49.80;;;;;;4956262;28;20195;-69
2022/05/23 14:04:45;;;;;;;1.90;1.75;;;25.10;49.80;;;;;;4956603;28;20640;-69
2022/05/23 14:07:13;;;;;;;2.55;1.75;;;25.20;49.90;;;;;;4954700;28;20225;-69
2022/05/23 14:09:43;;;;;;;1.90;1.80;;;25.10;50.00;;;;;;4956077;28;20222;-69
2022/05/23 14:12:11;;;;;;;1.73;1.63;;;25.10;50.20;;;;;;4954598;28;20198;-69
2022/05/23 14:14:39;;;;;;;2.47;1.70;;;25.10;50.20;;;;;;4954590;28;20219;-69
2022/05/23 14:17:12;;;;;;;3.13;1.85;;;25.10;50.20;;;;;;4955619;28;20215;-68
2022/05/23 14:19:45;;;;;;;2.40;1.80;;;25.10;50.30;;;;;;4955914;28;20579;-69